Time;durP1;ratioP1;P1;durP2;ratioP2;P2;SDS_P1;SDS_P2;PMS_P1;PMS_P2;Temp;Humidity;BMP_temperature;BMP_pressure;BME280_temperature;BME280_humidity;BME280_pressure;Samples;Min_cycle;Max_cycle;Signal;HPM_P1;HPM_P2
2020/12/10 00:00:13;;;;;;;71.90;34.87;;;4.20;99.90;;;;;;4995405;28;20567;-80
2020/12/10 00:02:40;;;;;;;75.37;36.90;;;4.20;99.90;;;;;;4994535;28;20223;-84
2020/12/10 00:05:08;;;;;;;71.03;34.97;;;4.20;99.90;;;;;;4995214;28;20200;-86
2020/12/10 00:07:36;;;;;;;74.50;36.50;;;4.20;99.90;;;;;;4995408;28;20222;-89
2020/12/10 00:10:05;;;;;;;75.83;36.97;;;4.20;99.90;;;;;;4994430;28;20730;-80
2020/12/10 00:12:32;;;;;;;67.63;35.27;;;4.30;99.90;;;;;;4994810;28;20219;-86
2020/12/10 00:14:58;;;;;;;66.77;33.17;;;4.20;99.90;;;;;;4994232;28;20270;-91
2020/12/10 00:17:26;;;;;;;70.93;35.10;;;4.20;99.90;;;;;;4993353;28;20270;-93
2020/12/10 00:19:52;;;;;;;73.00;36.03;;;4.20;99.90;;;;;;4993791;28;20811;-91
2020/12/10 00:22:19;;;;;;;72.67;37.10;;;4.20;99.90;;;;;;4993749;28;20550;-91
2020/12/10 00:24:47;;;;;;;70.43;36.03;;;4.20;99.90;;;;;;4993433;28;20199;-90
2020/12/10 00:27:15;;;;;;;66.67;34.20;;;4.20;99.90;;;;;;4992999;28;20204;-90
2020/12/10 00:29:42;;;;;;;72.27;36.30;;;4.20;99.90;;;;;;4994089;28;20208;-91
2020/12/10 00:32:11;;;;;;;70.67;35.90;;;4.20;99.90;;;;;;4994074;28;20250;-93
2020/12/10 00:34:38;;;;;;;63.70;35.90;;;4.20;99.90;;;;;;4992127;28;20188;-91
2020/12/10 00:37:06;;;;;;;72.20;35.20;;;4.20;99.90;;;;;;4996031;28;20806;-78
2020/12/10 00:39:33;;;;;;;68.57;36.43;;;4.20;99.90;;;;;;5004413;28;20196;-90
2020/12/10 00:42:00;;;;;;;70.77;35.63;;;4.20;99.90;;;;;;5002795;28;20219;-85
2020/12/10 00:44:27;;;;;;;68.03;37.20;;;4.30;99.90;;;;;;4993975;28;20204;-78
2020/12/10 00:46:53;;;;;;;70.00;37.03;;;4.30;99.90;;;;;;4986073;28;20207;-75
2020/12/10 00:49:20;;;;;;;64.83;34.63;;;4.20;99.90;;;;;;4985649;28;20210;-75
2020/12/10 00:51:47;;;;;;;72.53;36.60;;;4.20;99.90;;;;;;4985601;28;20609;-75
2020/12/10 00:54:13;;;;;;;67.30;35.47;;;4.20;99.90;;;;;;4985637;28;20208;-75
2020/12/10 00:56:39;;;;;;;70.43;36.67;;;4.20;99.90;;;;;;4985537;28;20246;-74
2020/12/10 00:59:07;;;;;;;69.77;35.97;;;4.20;99.90;;;;;;4985637;28;20208;-93
2020/12/10 01:01:33;;;;;;;68.97;35.23;;;4.20;99.90;;;;;;4984812;28;20593;-75
2020/12/10 01:03:59;;;;;;;64.63;33.40;;;4.20;99.90;;;;;;4985226;28;20224;-78
2020/12/10 01:06:26;;;;;;;64.37;33.73;;;4.20;99.90;;;;;;4985617;28;20204;-75
2020/12/10 01:08:52;;;;;;;66.80;36.43;;;4.20;99.90;;;;;;4985840;28;20589;-83
2020/12/10 01:11:25;;;;;;;63.10;34.73;;;4.20;99.90;;;;;;4984986;28;20231;-79
2020/12/10 01:13:51;;;;;;;61.17;34.33;;;4.20;99.90;;;;;;4986194;28;20215;-83
2020/12/10 01:16:18;;;;;;;67.33;34.87;;;4.10;99.90;;;;;;4990930;28;20612;-89
2020/12/10 01:18:45;;;;;;;66.23;35.50;;;4.20;99.90;;;;;;4992388;28;20192;-92
2020/12/10 01:21:11;;;;;;;61.90;34.13;;;4.20;99.90;;;;;;4992812;28;20232;-92
2020/12/10 01:23:37;;;;;;;55.67;32.50;;;4.20;99.90;;;;;;4989591;28;20202;-92
2020/12/10 01:26:03;;;;;;;62.47;34.40;;;4.20;99.90;;;;;;4996521;28;20557;-91
2020/12/10 01:28:30;;;;;;;60.97;34.17;;;4.20;99.90;;;;;;5008675;28;20492;-89
2020/12/10 01:30:56;;;;;;;60.00;32.40;;;4.20;99.90;;;;;;5012628;28;20210;-91
2020/12/10 01:33:23;;;;;;;59.50;33.13;;;4.20;99.90;;;;;;5011620;28;20226;-93
2020/12/10 01:35:49;;;;;;;55.50;32.10;;;4.20;99.90;;;;;;5013192;28;20488;-91
2020/12/10 01:38:15;;;;;;;61.20;32.50;;;4.20;99.90;;;;;;5012508;28;20242;-93
2020/12/10 01:40:49;;;;;;;55.90;29.70;;;4.20;99.90;;;;;;5011305;28;20218;-95
2020/12/10 01:43:16;;;;;;;58.37;32.03;;;4.20;99.90;;;;;;5012633;28;20196;-93
2020/12/10 01:45:42;;;;;;;57.00;32.20;;;4.20;99.90;;;;;;5012595;28;20207;-92
2020/12/10 01:48:08;;;;;;;56.53;32.43;;;4.20;99.90;;;;;;5012002;28;20211;-85
2020/12/10 01:50:35;;;;;;;56.90;32.37;;;4.10;99.90;;;;;;5012958;28;20211;-84
2020/12/10 01:53:02;;;;;;;53.70;32.57;;;4.10;99.90;;;;;;5012359;28;20203;-89
2020/12/10 01:55:29;;;;;;;56.07;31.27;;;4.10;99.90;;;;;;5011980;28;20203;-93
2020/12/10 01:57:55;;;;;;;59.07;31.63;;;4.10;99.90;;;;;;5011851;28;20265;-92
2020/12/10 02:00:21;;;;;;;54.17;31.07;;;4.10;99.90;;;;;;5011785;28;20207;-93
2020/12/10 02:02:54;;;;;;;59.50;33.00;;;4.10;99.90;;;;;;5012380;28;20211;-93
2020/12/10 02:05:21;;;;;;;56.10;32.20;;;4.10;99.90;;;;;;5012204;28;20227;-87
2020/12/10 02:07:48;;;;;;;60.87;32.20;;;4.10;99.90;;;;;;5012770;28;20217;-88
2020/12/10 02:10:14;;;;;;;61.23;31.17;;;4.10;99.90;;;;;;5010612;28;20198;-94
2020/12/10 02:12:40;;;;;;;57.33;31.10;;;4.10;99.90;;;;;;5013431;28;20761;-93
2020/12/10 02:15:07;;;;;;;55.07;30.37;;;4.10;99.90;;;;;;5014051;28;20202;-90
2020/12/10 02:17:37;;;;;;;57.63;32.47;;;4.00;99.90;;;;;;5013694;28;20231;-85
2020/12/10 02:20:04;;;;;;;58.80;31.60;;;4.00;99.90;;;;;;5012337;28;20215;-78
2020/12/10 02:22:30;;;;;;;60.10;30.80;;;4.10;99.90;;;;;;5010790;28;20615;-78
2020/12/10 02:24:57;;;;;;;60.27;31.93;;;4.00;99.90;;;;;;5006689;28;20206;-76
2020/12/10 02:27:24;;;;;;;56.90;31.07;;;4.10;99.90;;;;;;4988493;28;20211;-82
2020/12/10 02:29:54;;;;;;;58.63;31.73;;;4.00;99.90;;;;;;4987650;28;20515;-88
2020/12/10 02:32:20;;;;;;;55.70;28.47;;;4.10;99.90;;;;;;4987470;28;20593;-78
2020/12/10 02:34:53;;;;;;;49.27;28.77;;;4.10;99.90;;;;;;4988520;28;20196;-96
2020/12/10 02:37:22;;;;;;;53.23;29.13;;;4.00;99.90;;;;;;4996157;28;20224;-95
2020/12/10 02:39:48;;;;;;;51.70;29.03;;;4.00;99.90;;;;;;4999449;28;20192;-96
2020/12/10 02:42:15;;;;;;;50.03;28.73;;;4.10;99.90;;;;;;4997984;28;20239;-94
2020/12/10 02:44:41;;;;;;;46.93;27.90;;;4.10;99.90;;;;;;5000434;28;20208;-87
2020/12/10 02:47:08;;;;;;;54.23;28.17;;;4.10;99.90;;;;;;5001814;28;20207;-96
2020/12/10 02:49:34;;;;;;;45.57;28.87;;;4.10;99.90;;;;;;5010054;28;20210;-94
2020/12/10 02:52:00;;;;;;;46.80;27.40;;;4.10;99.90;;;;;;5011118;28;20270;-96
2020/12/10 02:54:27;;;;;;;49.70;27.90;;;4.10;99.90;;;;;;5009973;28;20264;-94
2020/12/10 02:57:02;;;;;;;42.10;26.90;;;4.10;99.90;;;;;;5108482;23;20223;-96
2020/12/10 02:59:33;;;;;;;47.10;28.57;;;4.10;99.90;;;;;;4994225;28;20544;-96
2020/12/10 03:02:02;;;;;;;48.50;28.37;;;4.00;99.90;;;;;;4995624;28;20184;-95
2020/12/10 03:04:28;;;;;;;44.07;27.30;;;4.10;99.90;;;;;;4992959;28;20320;-95
2020/12/10 03:06:55;;;;;;;43.30;26.73;;;4.10;99.90;;;;;;4994260;28;20370;-96
2020/12/10 03:09:21;;;;;;;44.23;27.60;;;4.10;99.90;;;;;;4993237;28;20299;-95
2020/12/10 03:11:50;;;;;;;44.40;27.03;;;4.10;99.90;;;;;;4995111;28;20821;-96
2020/12/10 03:14:29;;;;;;;41.83;25.77;;;4.10;99.90;;;;;;4995041;28;20506;-96
2020/12/10 03:16:56;;;;;;;43.07;26.33;;;4.10;99.90;;;;;;4994306;28;20216;-95
2020/12/10 03:19:31;;;;;;;41.10;26.50;;;4.10;99.90;;;;;;5004394;23;20234;-93
2020/12/10 03:21:58;;;;;;;42.47;26.87;;;4.10;99.90;;;;;;5011967;28;20614;-96
2020/12/10 03:24:26;;;;;;;41.30;25.20;;;4.10;99.90;;;;;;5011592;28;20214;-96
2020/12/10 03:26:53;;;;;;;40.27;25.37;;;4.10;99.90;;;;;;5031384;28;20501;-96
2020/12/10 03:29:19;;;;;;;38.13;25.00;;;4.10;99.90;;;;;;5035827;28;20203;-92
2020/12/10 03:31:45;;;;;;;36.07;23.40;;;4.00;99.90;;;;;;5035464;28;20198;-93
2020/12/10 03:34:15;;;;;;;38.07;23.87;;;4.00;99.90;;;;;;5035348;28;20206;-95
2020/12/10 03:36:49;;;;;;;33.43;22.83;;;4.00;99.90;;;;;;5034616;28;20226;-78
2020/12/10 03:39:16;;;;;;;38.90;24.53;;;4.00;99.90;;;;;;5034590;28;20749;-82
2020/12/10 03:41:48;;;;;;;33.77;23.30;;;4.00;99.90;;;;;;5034891;28;20506;-95
2020/12/10 03:44:17;;;;;;;38.97;24.60;;;4.00;99.90;;;;;;5035254;28;20194;-94
2020/12/10 03:46:44;;;;;;;40.97;24.10;;;4.00;99.90;;;;;;5032371;28;20209;-85
2020/12/10 03:49:12;;;;;;;34.50;23.10;;;4.00;99.90;;;;;;5032754;28;20210;-91
2020/12/10 03:51:39;;;;;;;37.23;23.73;;;4.00;99.90;;;;;;5033501;28;20206;-95
2020/12/10 03:54:05;;;;;;;36.10;22.67;;;4.00;99.90;;;;;;5034934;28;20198;-95
2020/12/10 03:56:32;;;;;;;38.90;23.47;;;3.90;99.90;;;;;;5034212;28;20222;-95
2020/12/10 03:58:58;;;;;;;34.57;22.83;;;3.90;99.90;;;;;;5034458;28;20229;-89
2020/12/10 04:01:25;;;;;;;36.13;22.77;;;3.90;99.90;;;;;;5033981;28;20621;-96
2020/12/10 04:03:51;;;;;;;32.07;22.10;;;3.90;99.90;;;;;;5033428;28;20222;-93
2020/12/10 04:06:19;;;;;;;32.93;21.87;;;3.90;99.90;;;;;;5034061;28;20202;-94
2020/12/10 04:08:48;;;;;;;30.93;21.13;;;3.90;99.90;;;;;;5034054;28;20200;-95
2020/12/10 04:11:15;;;;;;;29.47;20.03;;;3.90;99.90;;;;;;5033850;28;20202;-94
2020/12/10 04:13:41;;;;;;;33.57;21.17;;;3.80;99.90;;;;;;5033914;28;20210;-94
2020/12/10 04:16:09;;;;;;;31.10;20.47;;;3.80;99.90;;;;;;5036660;23;20245;-77
2020/12/10 04:18:38;;;;;;;31.87;19.77;;;3.80;99.90;;;;;;5007826;28;20529;-80
2020/12/10 04:21:05;;;;;;;28.97;18.70;;;3.80;99.90;;;;;;5008060;28;20571;-90
2020/12/10 04:23:33;;;;;;;27.93;18.53;;;3.80;99.90;;;;;;5008508;28;20463;-90
2020/12/10 04:25:59;;;;;;;25.77;17.40;;;3.80;99.90;;;;;;5017338;28;20206;-91
2020/12/10 04:28:25;;;;;;;28.00;18.33;;;3.80;99.90;;;;;;5028622;28;20195;-84
2020/12/10 04:30:52;;;;;;;30.40;19.87;;;3.80;99.90;;;;;;5027124;28;20229;-90
2020/12/10 04:33:18;;;;;;;29.13;18.87;;;3.80;99.90;;;;;;5028729;28;20198;-96
2020/12/10 04:35:44;;;;;;;31.53;19.20;;;3.80;99.90;;;;;;5030005;28;20194;-94
2020/12/10 04:38:11;;;;;;;30.30;20.40;;;3.70;99.90;;;;;;5026955;28;20225;-79
2020/12/10 04:40:38;;;;;;;29.33;19.70;;;3.70;99.90;;;;;;5027336;28;20617;-89
2020/12/10 04:43:07;;;;;;;32.17;21.77;;;3.70;99.90;;;;;;5028581;28;20247;-93
2020/12/10 04:45:33;;;;;;;31.37;20.97;;;3.70;99.90;;;;;;5028931;28;20260;-77
2020/12/10 04:48:00;;;;;;;30.47;20.27;;;3.70;99.90;;;;;;5027199;28;20286;-77
2020/12/10 04:50:28;;;;;;;30.27;19.40;;;3.70;99.90;;;;;;5027289;28;20269;-76
2020/12/10 04:52:55;;;;;;;29.93;19.77;;;3.70;99.90;;;;;;5029325;28;20594;-94
2020/12/10 04:55:23;;;;;;;31.23;18.97;;;3.70;99.90;;;;;;5028294;28;20191;-76
2020/12/10 04:57:53;;;;;;;27.07;18.30;;;3.70;99.90;;;;;;5026841;28;20306;-77
2020/12/10 05:00:20;;;;;;;28.70;19.43;;;3.70;99.90;;;;;;5027348;28;20230;-84
2020/12/10 05:02:47;;;;;;;31.00;19.80;;;3.70;99.90;;;;;;5028616;28;20517;-95
2020/12/10 05:05:24;;;;;;;33.90;19.03;;;3.60;99.90;;;;;;5028609;28;20198;-94
2020/12/10 05:07:50;;;;;;;30.73;19.17;;;3.70;99.90;;;;;;5027267;28;20202;-79
2020/12/10 05:10:17;;;;;;;28.37;19.30;;;3.70;99.90;;;;;;5028009;28;20211;-78
2020/12/10 05:12:44;;;;;;;28.97;18.83;;;3.60;99.90;;;;;;5027317;28;20261;-93
2020/12/10 05:15:12;;;;;;;26.57;18.73;;;3.60;99.90;;;;;;5028049;28;20253;-93
2020/12/10 05:17:38;;;;;;;29.47;18.77;;;3.60;99.90;;;;;;5006859;28;636908;-78
2020/12/10 05:20:06;;;;;;;27.73;19.70;;;3.60;99.90;;;;;;5028051;28;20194;-82
2020/12/10 05:22:33;;;;;;;28.13;19.17;;;3.60;99.90;;;;;;5028695;28;20286;-92
2020/12/10 05:25:00;;;;;;;30.77;19.93;;;3.60;99.90;;;;;;5028675;28;20551;-94
2020/12/10 05:27:28;;;;;;;31.27;19.80;;;3.60;99.90;;;;;;5029313;28;20198;-77
2020/12/10 05:29:54;;;;;;;29.37;19.67;;;3.60;99.90;;;;;;5028249;28;20214;-82
2020/12/10 05:32:43;;;;;;;31.03;19.57;;;3.60;99.90;;;;;;5028357;28;20194;-83
2020/12/10 05:35:26;;;;;;;31.70;19.17;;;3.60;99.90;;;;;;5026210;28;20529;-91
2020/12/10 05:37:54;;;;;;;32.77;21.20;;;3.60;99.90;;;;;;5027439;28;20210;-76
2020/12/10 05:40:21;;;;;;;31.67;20.33;;;3.60;99.90;;;;;;5027753;28;20202;-94
2020/12/10 05:42:49;;;;;;;35.27;20.53;;;3.60;99.90;;;;;;5028925;28;20209;-93
2020/12/10 05:45:16;;;;;;;33.13;20.03;;;3.60;99.90;;;;;;5027231;28;20203;-83
2020/12/10 05:47:48;;;;;;;32.40;19.67;;;3.60;99.90;;;;;;5027585;28;20213;-81
2020/12/10 05:50:17;;;;;;;31.80;19.43;;;3.60;99.90;;;;;;5027775;28;20238;-94
2020/12/10 05:52:51;;;;;;;32.30;19.50;;;3.60;99.90;;;;;;5029002;28;20214;-77
2020/12/10 05:55:18;;;;;;;28.43;19.33;;;3.60;99.90;;;;;;5028901;28;20862;-86
2020/12/10 05:57:44;;;;;;;29.90;19.13;;;3.60;99.90;;;;;;5027592;28;20226;-79
2020/12/10 06:00:10;;;;;;;24.70;17.93;;;3.60;99.90;;;;;;5026976;28;20260;-94
2020/12/10 06:02:40;;;;;;;32.63;20.70;;;3.60;99.90;;;;;;5029781;28;20214;-89
2020/12/10 06:05:07;;;;;;;27.90;17.17;;;3.60;99.90;;;;;;5027627;28;20521;-76
2020/12/10 06:07:33;;;;;;;30.63;19.30;;;3.60;99.90;;;;;;5027456;28;20776;-88
2020/12/10 06:10:00;;;;;;;29.10;18.67;;;3.60;99.90;;;;;;5030304;28;20202;-93
2020/12/10 06:12:26;;;;;;;30.17;19.40;;;3.60;99.90;;;;;;5028665;28;20206;-93
2020/12/10 06:14:53;;;;;;;28.70;19.23;;;3.60;99.90;;;;;;5027346;28;20203;-77
2020/12/10 06:17:20;;;;;;;29.23;18.07;;;3.50;99.90;;;;;;5028615;28;20238;-85
2020/12/10 06:19:46;;;;;;;27.60;18.13;;;3.50;99.90;;;;;;5029095;28;20206;-91
2020/12/10 06:22:33;;;;;;;31.33;19.27;;;3.50;99.90;;;;;;5027803;28;20217;-94
2020/12/10 06:25:00;;;;;;;24.83;17.87;;;3.50;99.90;;;;;;5027707;28;20190;-83
2020/12/10 06:27:27;;;;;;;25.40;17.83;;;3.40;99.90;;;;;;5008474;28;20615;-86
2020/12/10 06:30:14;;;;;;;27.53;17.70;;;3.40;99.90;;;;;;5008725;28;20630;-81
2020/12/10 06:32:46;;;;;;;24.53;16.20;;;3.40;99.90;;;;;;5009558;28;20203;-79
2020/12/10 06:35:30;;;;;;;29.00;17.30;;;3.30;99.90;;;;;;5008645;28;20199;-82
2020/12/10 06:37:57;;;;;;;24.73;16.70;;;3.30;99.90;;;;;;5009609;28;20231;-93
2020/12/10 06:40:35;;;;;;;24.90;16.13;;;3.30;99.90;;;;;;5008379;28;20512;-94
2020/12/10 06:43:03;;;;;;;23.93;16.80;;;3.20;99.90;;;;;;5009254;28;20191;-90
2020/12/10 06:45:33;;;;;;;23.07;16.37;;;3.20;99.90;;;;;;5009257;28;20203;-93
2020/12/10 06:48:00;;;;;;;26.47;17.57;;;3.20;99.90;;;;;;5007519;28;20195;-93
2020/12/10 06:50:30;;;;;;;24.47;16.50;;;3.10;99.90;;;;;;5009556;28;20208;-93
2020/12/10 06:53:14;;;;;;;26.07;17.57;;;3.00;99.90;;;;;;5008782;28;20207;-77
2020/12/10 06:56:05;;;;;;;29.17;16.43;;;3.00;99.90;;;;;;5009989;28;20203;-90
2020/12/10 06:58:49;;;;;;;24.73;15.70;;;3.00;99.90;;;;;;5008905;28;20349;-83
2020/12/10 07:01:20;;;;;;;24.00;16.70;;;3.00;99.90;;;;;;5012695;28;20300;-94
2020/12/10 07:03:47;;;;;;;25.80;16.53;;;3.00;99.90;;;;;;5014108;28;20226;-93
2020/12/10 07:06:18;;;;;;;24.20;15.67;;;2.90;99.90;;;;;;5013726;28;20199;-93
2020/12/10 07:09:00;;;;;;;23.67;15.87;;;2.90;99.90;;;;;;5015541;28;20203;-92
2020/12/10 07:11:31;;;;;;;24.53;16.27;;;2.90;99.90;;;;;;5018832;28;20737;-82
2020/12/10 07:13:57;;;;;;;23.73;16.00;;;2.80;99.90;;;;;;5017009;28;20207;-93
2020/12/10 07:16:29;;;;;;;30.43;16.80;;;2.80;99.90;;;;;;5011962;28;20227;-92
2020/12/10 07:18:56;;;;;;;26.47;16.93;;;2.80;99.90;;;;;;5012146;28;20246;-91
2020/12/10 07:21:23;;;;;;;28.43;18.33;;;2.70;99.90;;;;;;5012451;28;20602;-93
2020/12/10 07:23:49;;;;;;;23.40;16.00;;;2.70;99.90;;;;;;5011632;28;20199;-94
2020/12/10 07:26:23;;;;;;;27.23;17.13;;;2.70;99.90;;;;;;5022378;28;20205;-94
2020/12/10 07:28:52;;;;;;;25.50;16.20;;;2.60;99.90;;;;;;5029856;28;20191;-94
2020/12/10 07:31:18;;;;;;;23.60;15.43;;;2.60;99.90;;;;;;5028903;28;20214;-96
2020/12/10 07:33:45;;;;;;;25.83;16.53;;;2.60;99.90;;;;;;5035950;28;20206;-93
2020/12/10 07:36:11;;;;;;;25.93;16.90;;;2.60;99.90;;;;;;5035144;28;20206;-93
2020/12/10 07:38:43;;;;;;;26.90;17.27;;;2.60;99.90;;;;;;5033424;28;20234;-88
2020/12/10 07:41:10;;;;;;;24.63;15.33;;;2.50;99.90;;;;;;5033608;28;20206;-92
2020/12/10 07:43:45;;;;;;;25.27;16.03;;;2.50;99.90;;;;;;5033521;28;20199;-93
2020/12/10 07:46:12;;;;;;;23.30;15.33;;;2.50;99.90;;;;;;5033048;28;20199;-95
2020/12/10 07:48:39;;;;;;;26.63;17.07;;;2.50;99.90;;;;;;5033997;28;20197;-81
2020/12/10 07:51:06;;;;;;;22.60;15.33;;;2.50;99.90;;;;;;5032714;28;20210;-93
2020/12/10 08:08:16;;;;;;;22.83;15.33;;;2.50;99.90;;;;;;4892208;29;20633;-95
2020/12/10 08:13:53;;;;;;;25.57;16.30;;;2.50;99.90;;;;;;5097094;23;20240;-90
2020/12/10 08:17:04;;;;;;;23.43;15.20;;;2.40;99.90;;;;;;5050231;23;20773;-96
2020/12/10 08:20:33;;;;;;;23.37;15.43;;;2.40;99.90;;;;;;5022505;28;20234;-96
2020/12/10 08:24:02;;;;;;;26.77;16.00;;;2.50;99.90;;;;;;5108385;23;20253;-96
2020/12/10 08:30:00;;;;;;;22.07;14.20;;;2.50;99.90;;;;;;5026255;23;20239;-94
2020/12/10 08:32:36;;;;;;;23.13;14.60;;;2.50;99.90;;;;;;5079228;23;20313;-91
2020/12/10 08:35:59;;;;;;;27.17;16.17;;;2.60;99.90;;;;;;5023022;23;20593;-79
2020/12/10 08:38:26;;;;;;;26.30;16.33;;;2.60;99.90;;;;;;5015399;28;20215;-90
2020/12/10 08:40:56;;;;;;;22.60;15.77;;;2.70;99.90;;;;;;5012902;28;20630;-93
2020/12/10 08:43:22;;;;;;;25.10;16.23;;;2.70;99.90;;;;;;5012492;28;20199;-86
2020/12/10 08:45:48;;;;;;;23.53;15.20;;;2.70;99.90;;;;;;5012596;28;20211;-86
2020/12/10 08:48:17;;;;;;;27.10;16.13;;;2.70;99.90;;;;;;5012655;28;20200;-78
2020/12/10 08:50:51;;;;;;;24.17;16.50;;;2.70;99.90;;;;;;5011944;28;20211;-88
2020/12/10 08:53:18;;;;;;;29.23;16.40;;;2.70;99.90;;;;;;5011236;28;20203;-81
2020/12/10 08:55:46;;;;;;;23.87;15.23;;;2.70;99.90;;;;;;5012757;28;20211;-90
2020/12/10 08:58:18;;;;;;;22.73;15.53;;;2.70;99.90;;;;;;5012115;28;20223;-82
2020/12/10 09:00:45;;;;;;;27.40;16.37;;;2.80;99.90;;;;;;5011702;28;20231;-87
2020/12/10 09:03:14;;;;;;;24.23;16.27;;;2.70;99.90;;;;;;5013154;28;20230;-92
2020/12/10 09:05:41;;;;;;;22.27;14.93;;;2.80;99.90;;;;;;5019711;23;20326;-92
2020/12/10 09:08:09;;;;;;;25.47;15.73;;;2.80;99.90;;;;;;5012551;28;20199;-79
2020/12/10 09:10:36;;;;;;;23.97;15.57;;;2.80;99.90;;;;;;5013081;28;20207;-83
2020/12/10 09:13:03;;;;;;;21.70;15.73;;;2.80;99.90;;;;;;5012530;28;20888;-81
2020/12/10 09:15:30;;;;;;;22.03;15.33;;;2.80;99.90;;;;;;5012982;28;20207;-85
2020/12/10 09:17:57;;;;;;;21.60;14.37;;;2.80;99.90;;;;;;5013473;28;20227;-90
2020/12/10 09:20:24;;;;;;;21.80;15.03;;;2.90;99.90;;;;;;5013923;28;20287;-89
2020/12/10 09:22:53;;;;;;;24.17;15.47;;;2.90;99.90;;;;;;5018954;28;20209;-94
2020/12/10 09:25:20;;;;;;;24.13;15.23;;;3.00;99.90;;;;;;5021032;28;20219;-85
2020/12/10 09:27:47;;;;;;;23.60;15.23;;;3.00;99.90;;;;;;5016119;28;20671;-96
2020/12/10 09:30:13;;;;;;;23.87;15.47;;;3.00;99.90;;;;;;5015984;28;20604;-81
2020/12/10 09:32:41;;;;;;;21.67;15.40;;;3.10;99.90;;;;;;5016862;28;20210;-81
2020/12/10 09:35:10;;;;;;;23.10;15.40;;;3.10;99.90;;;;;;5013259;28;20211;-85
2020/12/10 09:40:32;;;;;;;23.30;14.37;;;3.10;99.90;;;;;;5011958;28;20208;-89
2020/12/10 09:42:59;;;;;;;25.80;14.67;;;3.10;99.90;;;;;;5009219;28;20199;-80
2020/12/10 09:45:25;;;;;;;22.13;13.90;;;3.20;99.90;;;;;;5011887;28;20745;-86
2020/12/10 09:47:55;;;;;;;24.67;14.50;;;3.20;99.90;;;;;;5012889;28;20322;-84
2020/12/10 09:50:25;;;;;;;20.57;14.43;;;3.30;99.90;;;;;;5011886;28;20219;-96
2020/12/10 09:53:00;;;;;;;22.07;14.37;;;3.30;99.90;;;;;;5012750;28;20199;-96
2020/12/10 09:58:08;;;;;;;23.00;14.80;;;3.30;99.90;;;;;;5002767;28;20250;-93
2020/12/10 10:00:35;;;;;;;24.07;14.63;;;3.40;99.90;;;;;;5011343;28;20291;-78
2020/12/10 10:03:06;;;;;;;22.10;15.00;;;3.40;99.90;;;;;;5012557;28;20223;-87
2020/12/10 10:05:33;;;;;;;21.40;14.27;;;3.40;99.90;;;;;;5014439;28;20289;-86
2020/12/10 10:07:59;;;;;;;22.33;14.57;;;3.40;99.90;;;;;;5012845;28;20318;-95
2020/12/10 10:10:26;;;;;;;21.63;14.10;;;3.50;99.90;;;;;;5012508;28;20686;-94
2020/12/10 10:12:52;;;;;;;20.27;13.63;;;3.50;99.90;;;;;;5009928;28;20203;-86
2020/12/10 10:15:22;;;;;;;24.10;15.13;;;3.60;99.90;;;;;;5011524;28;20238;-91
2020/12/10 10:17:48;;;;;;;20.80;14.80;;;3.70;99.90;;;;;;5012447;28;20231;-91
2020/12/10 10:20:16;;;;;;;24.67;14.00;;;3.70;99.90;;;;;;5011069;28;20732;-94
2020/12/10 10:25:47;;;;;;;24.40;14.70;;;3.70;99.90;;;;;;5028575;28;20269;-89
2020/12/10 10:28:14;;;;;;;21.57;13.80;;;3.70;99.90;;;;;;5045013;28;20198;-85
2020/12/10 10:30:41;;;;;;;20.97;13.57;;;3.70;99.90;;;;;;5026747;28;20210;-77
2020/12/10 10:33:07;;;;;;;19.23;13.60;;;3.70;99.90;;;;;;5023253;28;20209;-75
2020/12/10 10:35:34;;;;;;;21.13;14.20;;;3.80;99.90;;;;;;5022800;28;20232;-74
2020/12/10 10:38:00;;;;;;;21.97;13.60;;;3.80;99.90;;;;;;5023737;28;20218;-75
2020/12/10 10:40:26;;;;;;;20.20;13.37;;;3.80;99.90;;;;;;5022959;28;20564;-75
2020/12/10 10:42:53;;;;;;;21.20;14.30;;;3.80;99.90;;;;;;5023718;28;20215;-82
2020/12/10 10:45:19;;;;;;;19.67;13.80;;;3.90;99.90;;;;;;5023662;28;20669;-74
2020/12/10 10:47:46;;;;;;;20.80;13.83;;;3.90;99.90;;;;;;5023194;28;20249;-75
2020/12/10 10:50:17;;;;;;;16.67;12.70;;;3.90;99.90;;;;;;5023872;28;20435;-77
2020/12/10 10:52:44;;;;;;;19.13;13.00;;;3.90;99.90;;;;;;5024931;28;20206;-76
2020/12/10 10:55:10;;;;;;;25.87;13.87;;;3.80;99.90;;;;;;5024230;28;20209;-93
2020/12/10 10:57:37;;;;;;;20.20;12.83;;;3.90;99.90;;;;;;5024458;28;20205;-81
2020/12/10 11:00:06;;;;;;;19.23;12.80;;;3.80;99.90;;;;;;5032356;23;20774;-76
2020/12/10 11:02:33;;;;;;;17.77;12.13;;;3.80;99.90;;;;;;4985197;28;20702;-76
2020/12/10 11:05:02;;;;;;;18.07;12.50;;;3.80;99.90;;;;;;4985980;28;20246;-76
2020/12/10 11:07:31;;;;;;;19.33;13.17;;;3.80;99.90;;;;;;4987812;28;20210;-84
2020/12/10 11:09:57;;;;;;;20.63;13.67;;;3.80;99.90;;;;;;4985746;28;20196;-95
2020/12/10 11:12:26;;;;;;;20.70;13.10;;;3.90;99.90;;;;;;4985011;28;20215;-78
2020/12/10 11:14:52;;;;;;;17.70;12.23;;;3.90;99.90;;;;;;4984316;28;20207;-79
2020/12/10 11:17:18;;;;;;;21.00;13.27;;;3.90;99.90;;;;;;4984047;28;20210;-77
2020/12/10 11:19:45;;;;;;;18.27;12.23;;;3.90;99.90;;;;;;4985132;28;20574;-78
2020/12/10 11:22:12;;;;;;;17.97;12.70;;;3.90;99.90;;;;;;4983581;28;20647;-75
2020/12/10 11:24:39;;;;;;;19.23;12.63;;;4.00;99.90;;;;;;4986845;28;20196;-89
2020/12/10 11:27:06;;;;;;;18.43;13.70;;;4.00;99.90;;;;;;5013161;23;20326;-76
2020/12/10 11:29:32;;;;;;;21.67;12.70;;;4.00;99.90;;;;;;5003955;28;20630;-77
2020/12/10 11:31:59;;;;;;;18.93;13.60;;;4.00;99.90;;;;;;5003282;28;20239;-75
2020/12/10 11:34:25;;;;;;;17.93;12.70;;;4.00;99.90;;;;;;5005912;28;20207;-75
2020/12/10 11:36:52;;;;;;;19.40;12.73;;;4.00;99.90;;;;;;5004250;28;20871;-75
2020/12/10 11:39:19;;;;;;;19.60;12.90;;;4.00;99.90;;;;;;5004458;28;20238;-77
2020/12/10 11:41:45;;;;;;;18.23;12.67;;;4.00;99.90;;;;;;5005105;28;20206;-73
2020/12/10 11:44:11;;;;;;;16.70;11.27;;;4.10;99.90;;;;;;5003769;28;20203;-75
2020/12/10 11:46:38;;;;;;;17.30;11.60;;;4.00;99.90;;;;;;5006250;28;20207;-76
2020/12/10 11:49:04;;;;;;;19.40;12.40;;;4.00;99.90;;;;;;5007824;28;20199;-84
2020/12/10 11:51:32;;;;;;;17.37;12.40;;;4.00;99.90;;;;;;5009874;28;20200;-86
2020/12/10 11:53:59;;;;;;;15.13;11.13;;;4.00;99.90;;;;;;5013776;28;20289;-77
2020/12/10 11:56:26;;;;;;;17.60;12.40;;;4.00;99.90;;;;;;5012146;28;20660;-88
2020/12/10 11:58:53;;;;;;;17.80;11.77;;;4.00;99.90;;;;;;5013888;28;20230;-87
2020/12/10 12:01:19;;;;;;;16.40;12.43;;;4.00;99.90;;;;;;5013725;28;20202;-85
2020/12/10 12:03:45;;;;;;;18.37;11.87;;;4.00;99.90;;;;;;5013576;28;20238;-86
2020/12/10 12:06:11;;;;;;;18.23;12.47;;;4.00;99.90;;;;;;5013477;28;20230;-87
2020/12/10 12:08:37;;;;;;;18.13;12.37;;;4.00;99.90;;;;;;5011772;28;20603;-88
2020/12/10 12:11:04;;;;;;;17.10;12.93;;;4.00;99.90;;;;;;5012805;28;20211;-87
2020/12/10 12:13:31;;;;;;;19.07;13.20;;;4.00;99.90;;;;;;5013358;28;20214;-83
2020/12/10 12:15:57;;;;;;;17.90;12.33;;;4.00;99.90;;;;;;5012884;28;20199;-88
2020/12/10 12:18:26;;;;;;;19.43;13.40;;;4.00;99.90;;;;;;5013434;28;20266;-89
2020/12/10 12:20:54;;;;;;;21.47;13.73;;;4.00;99.90;;;;;;5012615;28;20246;-84
2020/12/10 12:23:21;;;;;;;20.13;13.10;;;4.00;99.90;;;;;;5012777;28;20203;-89
2020/12/10 12:25:47;;;;;;;17.23;12.90;;;4.00;99.90;;;;;;5012633;28;20996;-87
2020/12/10 12:28:13;;;;;;;20.07;12.77;;;4.00;99.90;;;;;;5012855;28;20199;-88
2020/12/10 12:30:40;;;;;;;22.17;15.27;;;4.00;99.90;;;;;;5012685;28;20199;-87
2020/12/10 12:33:06;;;;;;;20.67;13.70;;;4.00;99.90;;;;;;5012357;28;20207;-89
2020/12/10 12:35:35;;;;;;;19.17;13.57;;;4.00;99.90;;;;;;5012446;28;20210;-89
2020/12/10 12:38:03;;;;;;;19.60;13.83;;;4.00;99.90;;;;;;5012296;28;20211;-89
2020/12/10 12:40:30;;;;;;;18.63;12.37;;;4.00;99.90;;;;;;5012561;28;20311;-88
2020/12/10 12:43:00;;;;;;;21.27;14.40;;;4.10;99.90;;;;;;5012453;28;20221;-83
2020/12/10 12:45:26;;;;;;;22.07;14.10;;;4.10;99.90;;;;;;5012521;28;20203;-79
2020/12/10 12:47:56;;;;;;;20.30;13.20;;;4.10;99.90;;;;;;5011674;28;20253;-76
2020/12/10 12:50:22;;;;;;;18.07;12.90;;;4.10;99.90;;;;;;5011966;28;20532;-80
2020/12/10 12:52:49;;;;;;;19.97;13.57;;;4.00;99.90;;;;;;5011191;28;20196;-89
2020/12/10 12:55:15;;;;;;;19.33;13.53;;;4.00;99.90;;;;;;5011410;28;20207;-89
2020/12/10 12:57:42;;;;;;;20.33;13.83;;;4.00;99.90;;;;;;5009317;28;20223;-82
2020/12/10 13:00:08;;;;;;;20.03;14.17;;;4.00;99.90;;;;;;5009746;28;20239;-85
2020/12/10 13:02:34;;;;;;;21.13;13.53;;;4.00;99.90;;;;;;5009384;28;20227;-79
2020/12/10 13:05:01;;;;;;;20.83;13.80;;;4.00;99.90;;;;;;5010438;28;20631;-87
2020/12/10 13:07:28;;;;;;;22.37;13.53;;;4.00;99.90;;;;;;5009939;28;20215;-85
2020/12/10 13:09:55;;;;;;;21.67;14.30;;;4.00;99.90;;;;;;5009623;28;20199;-86
2020/12/10 13:12:23;;;;;;;23.20;14.23;;;4.10;99.90;;;;;;5009050;28;20222;-76